Time;durP1;ratioP1;P1;durP2;ratioP2;P2;SDS_P1;SDS_P2;PMS_P1;PMS_P2;Temp;Humidity;BMP_temperature;BMP_pressure;BME280_temperature;BME280_humidity;BME280_pressure;Samples;Min_cycle;Max_cycle;Signal;HPM_P1;HPM_P2
2022/01/30 00:00:07;;;;;;;20.23;4.30;;;7.60;1.00;;;;;;4930988;28;20215;-62
2022/01/30 00:02:37;;;;;;;23.90;4.07;;;7.60;1.00;;;;;;4928846;28;20234;-62
2022/01/30 00:05:05;;;;;;;21.27;4.50;;;7.60;1.00;;;;;;4924599;28;20282;-62
2022/01/30 00:07:33;;;;;;;17.73;4.27;;;7.50;1.00;;;;;;4950169;28;20259;-61
2022/01/30 00:10:00;;;;;;;19.57;4.30;;;7.50;1.00;;;;;;4908710;28;20223;-63
2022/01/30 00:12:41;;;;;;;30.17;4.67;;;7.50;1.00;;;;;;4930393;28;20231;-63
2022/01/30 00:15:09;;;;;;;19.03;4.07;;;7.40;1.00;;;;;;4928648;28;20258;-62
2022/01/30 00:17:43;;;;;;;16.70;3.73;;;7.40;1.00;;;;;;4931348;28;20230;-62
2022/01/30 00:20:20;;;;;;;22.20;3.97;;;7.30;1.00;;;;;;4914203;28;20211;-63
2022/01/30 00:23:06;;;;;;;22.00;4.07;;;7.30;1.00;;;;;;4929634;28;20231;-61
2022/01/30 00:25:45;;;;;;;22.70;5.17;;;7.30;1.00;;;;;;4928590;28;20262;-62
2022/01/30 00:28:14;;;;;;;20.70;4.30;;;7.30;1.00;;;;;;4929480;29;20390;-62
2022/01/30 00:30:41;;;;;;;18.13;4.33;;;7.20;1.00;;;;;;4929969;28;20212;-62
2022/01/30 00:33:11;;;;;;;33.97;4.97;;;7.00;1.00;;;;;;4929148;28;20203;-62
2022/01/30 00:35:41;;;;;;;24.10;5.40;;;7.00;1.00;;;;;;4913070;28;20212;-63
2022/01/30 00:38:15;;;;;;;19.20;4.47;;;6.90;1.00;;;;;;4928072;28;20303;-62
2022/01/30 00:40:46;;;;;;;19.00;4.70;;;6.80;1.00;;;;;;4923608;28;20334;-63
2022/01/30 00:43:13;;;;;;;24.00;4.83;;;6.80;1.00;;;;;;4932091;28;20262;-63
2022/01/30 00:45:40;;;;;;;20.10;4.37;;;6.80;1.00;;;;;;4916557;28;20266;-62
2022/01/30 00:48:08;;;;;;;17.23;4.27;;;6.70;1.00;;;;;;4929041;28;20725;-61
2022/01/30 00:50:38;;;;;;;17.43;4.00;;;6.70;1.00;;;;;;4910701;28;20203;-63
2022/01/30 00:53:05;;;;;;;19.13;3.70;;;6.70;1.00;;;;;;4937131;28;20234;-62
2022/01/30 00:55:32;;;;;;;22.63;4.10;;;6.80;1.00;;;;;;4914684;28;20758;-62
2022/01/30 00:58:03;;;;;;;22.20;4.40;;;6.90;1.00;;;;;;4927052;28;20273;-62
2022/01/30 01:00:31;;;;;;;24.90;4.70;;;6.90;1.00;;;;;;4944152;28;20211;-62
2022/01/30 01:02:59;;;;;;;34.47;4.87;;;6.90;1.00;;;;;;4928735;29;20216;-63
2022/01/30 01:05:28;;;;;;;28.70;4.90;;;7.00;1.00;;;;;;4951569;28;20214;-62
2022/01/30 01:08:09;;;;;;;30.30;4.57;;;7.00;1.00;;;;;;4913768;29;20730;-62
2022/01/30 01:10:48;;;;;;;23.23;4.40;;;6.90;1.00;;;;;;4929053;28;20219;-62
2022/01/30 01:24:12;;;;;;;27.23;4.77;;;6.20;1.00;;;;;;4929507;28;20257;-62
2022/01/30 01:26:39;;;;;;;23.63;4.73;;;6.20;1.00;;;;;;4928121;28;20216;-62
2022/01/30 01:29:09;;;;;;;26.20;4.33;;;6.10;1.00;;;;;;4930004;28;20226;-62
2022/01/30 01:31:39;;;;;;;19.63;4.67;;;6.00;1.00;;;;;;4913163;28;20314;-62
2022/01/30 01:36:57;;;;;;;22.63;4.23;;;5.90;1.00;;;;;;4923090;28;20212;-61
2022/01/30 01:39:24;;;;;;;23.13;4.70;;;5.90;1.00;;;;;;4928622;28;20223;-62
2022/01/30 01:41:51;;;;;;;22.57;4.37;;;5.80;1.00;;;;;;4935857;28;20199;-62
2022/01/30 01:44:29;;;;;;;20.90;4.83;;;5.90;1.00;;;;;;4937453;28;20618;-62
2022/01/30 01:46:56;;;;;;;22.03;4.10;;;6.00;1.00;;;;;;4928519;28;20218;-61
2022/01/30 01:49:30;;;;;;;22.23;4.23;;;6.10;1.00;;;;;;4930991;28;20341;-61
2022/01/30 01:52:18;;;;;;;17.60;3.57;;;6.30;1.00;;;;;;4911176;28;20218;-62
2022/01/30 01:54:52;;;;;;;27.07;4.43;;;6.50;1.00;;;;;;4910197;28;20294;-61
2022/01/30 01:57:21;;;;;;;21.60;4.13;;;6.40;1.00;;;;;;4922873;28;20200;-62
2022/01/30 02:00:25;;;;;;;24.33;5.77;;;6.40;1.00;;;;;;4912064;28;20365;-61
2022/01/30 02:02:54;;;;;;;22.13;4.80;;;6.40;1.00;;;;;;4926036;28;20310;-63
2022/01/30 02:05:23;;;;;;;23.17;4.30;;;6.40;1.00;;;;;;4929234;28;20278;-63
2022/01/30 02:13:50;;;;;;;25.23;4.67;;;6.50;1.00;;;;;;4923014;28;20651;-63
2022/01/30 02:25:21;;;;;;;17.30;4.07;;;6.30;1.00;;;;;;4925441;28;20219;-62
2022/01/30 02:27:48;;;;;;;23.50;4.03;;;6.50;99.90;;;;;;4930213;28;20614;-62
2022/01/30 02:30:20;;;;;;;21.20;4.90;;;6.50;1.00;;;;;;4933339;28;20208;-62
2022/01/30 02:32:51;;;;;;;20.93;3.80;;;6.40;1.00;;;;;;4927387;28;20288;-63
2022/01/30 02:35:20;;;;;;;19.67;4.60;;;6.20;1.00;;;;;;4930681;28;20212;-63
2022/01/30 02:37:51;;;;;;;20.67;4.57;;;6.20;1.00;;;;;;4916772;28;20253;-65
2022/01/30 02:40:18;;;;;;;21.27;4.43;;;6.00;1.00;;;;;;4933246;28;20211;-62
2022/01/30 02:42:49;;;;;;;17.03;4.10;;;5.80;1.00;;;;;;4934806;28;20274;-63
2022/01/30 02:45:20;;;;;;;18.57;3.77;;;5.60;30.50;;;;;;4932336;28;20664;-63
2022/01/30 02:47:59;;;;;;;24.20;4.13;;;5.50;64.70;;;;;;4924707;28;20257;-62
2022/01/30 02:53:05;;;;;;;22.87;4.30;;;5.40;82.90;;;;;;4942053;28;20199;-62
2022/01/30 02:55:32;;;;;;;19.17;4.57;;;5.40;57.20;;;;;;4914418;28;20204;-64
2022/01/30 02:58:00;;;;;;;15.67;3.83;;;5.30;33.70;;;;;;4932822;28;20266;-64
2022/01/30 03:00:27;;;;;;;18.97;4.23;;;5.40;9.10;;;;;;4918414;28;21065;-62
2022/01/30 03:02:54;;;;;;;26.37;5.37;;;5.30;37.20;;;;;;4929137;28;20290;-63
2022/01/30 03:05:22;;;;;;;21.17;4.77;;;5.50;8.90;;;;;;4914396;28;20223;-64
2022/01/30 03:07:48;;;;;;;21.90;4.40;;;5.60;1.00;;;;;;4913095;28;20637;-63
2022/01/30 03:10:16;;;;;;;26.30;5.37;;;5.70;1.00;;;;;;4927875;28;20218;-63
2022/01/30 03:12:43;;;;;;;16.70;4.10;;;5.70;1.00;;;;;;4935106;28;20203;-63
2022/01/30 03:15:20;;;;;;;22.53;3.83;;;5.80;1.00;;;;;;4931366;28;20294;-63
2022/01/30 03:17:47;;;;;;;20.43;4.17;;;5.80;1.00;;;;;;4918011;28;20216;-63
2022/01/30 03:20:14;;;;;;;30.10;5.00;;;5.80;1.00;;;;;;4913734;28;20238;-64
2022/01/30 03:22:40;;;;;;;17.17;3.47;;;5.70;1.00;;;;;;4934408;28;20519;-64
2022/01/30 03:25:07;;;;;;;22.80;4.70;;;5.60;1.00;;;;;;4930793;28;20770;-64
2022/01/30 03:27:52;;;;;;;25.73;4.33;;;5.50;1.00;;;;;;4939120;28;20494;-64
2022/01/30 03:30:30;;;;;;;24.90;4.37;;;5.50;1.00;;;;;;4929874;28;20196;-63
2022/01/30 03:33:23;;;;;;;18.07;4.63;;;5.30;1.00;;;;;;4930433;28;20212;-64
2022/01/30 03:35:52;;;;;;;19.37;4.20;;;5.20;5.50;;;;;;4929769;28;20257;-63
2022/01/30 03:38:22;;;;;;;24.93;4.97;;;5.10;75.50;;;;;;4929406;28;20926;-64
2022/01/30 03:40:50;;;;;;;14.70;4.77;;;5.10;91.90;;;;;;5010223;28;20199;-65
2022/01/30 03:43:17;;;;;;;20.20;4.40;;;5.00;95.10;;;;;;4929050;28;20207;-64
2022/01/30 03:45:49;;;;;;;29.87;5.40;;;5.00;93.10;;;;;;4928172;28;20293;-62
2022/01/30 03:48:16;;;;;;;19.43;4.83;;;5.00;45.70;;;;;;4932313;28;20199;-63
2022/01/30 03:50:59;;;;;;;32.03;5.13;;;5.00;78.80;;;;;;4928673;28;20207;-62
2022/01/30 03:53:26;;;;;;;19.57;4.87;;;5.00;99.90;;;;;;4921999;28;20226;-62
2022/01/30 03:55:53;;;;;;;22.43;4.67;;;4.90;99.90;;;;;;4924746;28;20235;-62
2022/01/30 03:58:26;;;;;;;20.17;4.70;;;4.90;99.90;;;;;;4916946;28;20204;-63
2022/01/30 04:00:56;;;;;;;26.13;4.80;;;4.90;99.90;;;;;;4956836;28;20623;-63
2022/01/30 04:03:23;;;;;;;21.60;4.60;;;4.80;99.90;;;;;;4925308;28;20215;-63
2022/01/30 04:05:59;;;;;;;20.90;4.57;;;4.90;99.90;;;;;;4940139;28;20219;-63
2022/01/30 04:08:29;;;;;;;29.13;4.83;;;4.90;97.40;;;;;;4915305;28;20311;-64
2022/01/30 04:11:02;;;;;;;25.07;3.90;;;4.90;52.20;;;;;;4930972;28;20582;-64
2022/01/30 04:13:40;;;;;;;21.93;4.70;;;4.90;18.50;;;;;;4926251;28;20608;-63
2022/01/30 04:16:26;;;;;;;17.30;4.33;;;4.90;20.70;;;;;;4926508;28;20202;-64
2022/01/30 04:19:12;;;;;;;17.47;3.87;;;4.80;30.60;;;;;;4924374;28;20683;-63
2022/01/30 04:22:03;;;;;;;14.13;3.83;;;4.70;38.00;;;;;;4917806;28;20857;-62
2022/01/30 04:24:43;;;;;;;19.33;4.43;;;4.70;72.30;;;;;;4929865;28;20540;-63
2022/01/30 04:27:14;;;;;;;17.43;4.23;;;4.60;84.70;;;;;;4929764;28;20223;-63
2022/01/30 04:30:04;;;;;;;11.50;3.60;;;4.70;57.60;;;;;;4934793;28;20207;-65
2022/01/30 04:32:52;;;;;;;20.00;3.93;;;4.60;76.20;;;;;;4930510;28;20204;-64
2022/01/30 04:35:46;;;;;;;16.53;3.90;;;4.70;44.10;;;;;;4930558;29;20192;-64
2022/01/30 04:38:44;;;;;;;16.20;3.33;;;4.80;1.00;;;;;;4923586;28;20652;-63
2022/01/30 05:03:54;;;;;;;16.30;3.73;;;5.20;1.00;;;;;;4933394;28;20218;-63
2022/01/30 05:09:42;;;;;;;15.13;3.83;;;5.30;1.00;;;;;;4930505;28;20679;-63
2022/01/30 05:12:34;;;;;;;23.33;3.80;;;5.30;1.00;;;;;;4928747;28;20208;-64
2022/01/30 05:15:31;;;;;;;16.27;3.00;;;5.40;1.00;;;;;;4951145;28;20288;-62
2022/01/30 05:18:27;;;;;;;18.70;3.97;;;5.40;1.00;;;;;;4932952;29;20218;-64
2022/01/30 05:21:22;;;;;;;14.37;3.23;;;5.50;1.00;;;;;;4921768;28;20574;-64
2022/01/30 05:24:12;;;;;;;21.33;4.07;;;5.50;1.00;;;;;;4933808;28;20219;-63
2022/01/30 05:26:53;;;;;;;14.30;2.67;;;5.50;1.00;;;;;;4930422;28;20266;-63
2022/01/30 05:29:25;;;;;;;24.47;4.27;;;5.50;1.00;;;;;;4931553;28;20206;-63
2022/01/30 05:32:14;;;;;;;24.83;4.30;;;5.20;1.00;;;;;;4937880;28;20316;-64
2022/01/30 05:35:02;;;;;;;12.10;3.50;;;5.20;1.00;;;;;;4933668;28;20263;-62
2022/01/30 05:37:48;;;;;;;19.97;4.03;;;5.20;1.00;;;;;;4932757;28;20285;-64
2022/01/30 05:40:35;;;;;;;15.10;3.23;;;5.30;1.00;;;;;;4933365;28;20226;-63
2022/01/30 05:43:38;;;;;;;22.00;4.07;;;5.20;1.00;;;;;;4962338;28;20226;-64
2022/01/30 05:46:40;;;;;;;15.63;3.50;;;5.10;1.00;;;;;;4934628;28;20239;-62
2022/01/30 05:49:29;;;;;;;12.53;3.20;;;4.90;82.90;;;;;;4935044;28;20218;-63
2022/01/30 05:52:27;;;;;;;14.10;3.30;;;4.80;99.90;;;;;;5042688;28;20276;-64
2022/01/30 05:55:15;;;;;;;19.20;3.53;;;4.70;99.90;;;;;;4929280;28;20270;-64
2022/01/30 05:57:42;;;;;;;17.40;3.50;;;4.70;99.90;;;;;;4907451;28;20738;-64
2022/01/30 06:00:13;;;;;;;16.87;3.13;;;4.80;99.90;;;;;;4930820;28;20713;-64
2022/01/30 06:02:53;;;;;;;20.70;3.83;;;5.00;19.60;;;;;;4913891;28;20208;-63
2022/01/30 06:05:26;;;;;;;21.60;4.00;;;5.00;19.60;;;;;;4913121;28;20231;-62
2022/01/30 06:07:55;;;;;;;24.77;4.73;;;5.10;19.80;;;;;;4920744;28;20224;-63
2022/01/30 06:10:27;;;;;;;18.03;4.33;;;5.10;9.10;;;;;;4938897;28;20207;-62
2022/01/30 06:12:57;;;;;;;19.93;6.00;;;5.10;2.50;;;;;;4928805;28;20203;-64
2022/01/30 06:15:24;;;;;;;25.23;6.73;;;5.10;1.00;;;;;;4930144;28;20243;-62
2022/01/30 06:18:01;;;;;;;14.90;3.90;;;5.00;37.20;;;;;;4921460;28;20245;-64
2022/01/30 06:20:57;;;;;;;20.87;5.37;;;4.90;77.30;;;;;;4938674;28;20683;-64
2022/01/30 06:23:57;;;;;;;20.97;5.33;;;4.90;99.90;;;;;;4979130;28;20214;-63
2022/01/30 06:26:24;;;;;;;19.97;4.87;;;4.80;99.90;;;;;;4924796;28;20219;-63
2022/01/30 06:29:29;;;;;;;18.53;4.57;;;4.70;99.90;;;;;;4931137;28;20207;-63
2022/01/30 06:32:20;;;;;;;19.90;3.70;;;4.70;99.90;;;;;;4929446;28;20206;-63
2022/01/30 06:35:13;;;;;;;23.00;5.33;;;4.70;99.90;;;;;;4965914;28;20215;-63
2022/01/30 06:38:14;;;;;;;22.77;5.47;;;4.70;99.90;;;;;;4916857;28;20248;-63
2022/01/30 06:41:20;;;;;;;26.73;6.33;;;4.90;99.90;;;;;;4923394;28;20243;-63
2022/01/30 06:44:16;;;;;;;27.27;8.00;;;5.10;99.90;;;;;;4986989;28;20213;-63
2022/01/30 06:47:05;;;;;;;32.40;7.20;;;5.20;99.90;;;;;;4946484;28;20235;-63
2022/01/30 06:49:55;;;;;;;18.53;4.80;;;5.20;99.90;;;;;;4915604;28;20294;-63
2022/01/30 06:52:46;;;;;;;20.37;4.67;;;5.20;99.90;;;;;;4916513;28;20306;-63
2022/01/30 06:55:31;;;;;;;20.77;6.20;;;5.20;99.90;;;;;;4933209;28;20362;-64
2022/01/30 06:58:01;;;;;;;21.80;8.00;;;5.20;99.90;;;;;;4937896;28;20211;-64
2022/01/30 07:00:57;;;;;;;25.60;6.90;;;5.20;99.90;;;;;;4989425;28;20227;-63
2022/01/30 07:03:56;;;;;;;27.47;6.67;;;5.20;91.70;;;;;;4929052;28;20204;-62
2022/01/30 07:06:45;;;;;;;22.47;5.80;;;5.00;99.90;;;;;;4915530;28;20654;-63
2022/01/30 07:09:12;;;;;;;17.27;4.00;;;5.00;99.90;;;;;;4929151;28;20271;-63
2022/01/30 07:11:39;;;;;;;24.07;5.03;;;5.10;99.90;;;;;;4938136;28;20212;-64
2022/01/30 07:14:14;;;;;;;18.80;4.30;;;5.20;97.50;;;;;;4938018;28;20270;-64
2022/01/30 07:16:44;;;;;;;21.10;3.87;;;5.20;58.40;;;;;;4955813;28;20298;-65
2022/01/30 07:19:14;;;;;;;29.23;5.07;;;5.30;1.00;;;;;;4930825;29;20235;-65
2022/01/30 07:21:44;;;;;;;25.90;6.00;;;5.30;1.00;;;;;;4929210;28;20816;-63
2022/01/30 07:24:14;;;;;;;23.97;7.23;;;5.20;1.00;;;;;;4927349;28;20208;-64
2022/01/30 07:26:41;;;;;;;26.43;9.40;;;5.30;1.00;;;;;;4935457;28;20230;-64
2022/01/30 07:29:11;;;;;;;35.60;10.83;;;5.30;1.00;;;;;;4932799;28;20198;-62
2022/01/30 07:31:40;;;;;;;22.90;4.43;;;5.30;1.00;;;;;;4929119;28;20253;-63
2022/01/30 07:34:07;;;;;;;25.37;6.40;;;5.20;1.00;;;;;;4916484;28;20298;-62
2022/01/30 07:36:37;;;;;;;36.77;7.27;;;5.20;1.00;;;;;;4932160;28;20667;-63
2022/01/30 07:39:08;;;;;;;22.40;5.47;;;5.20;1.00;;;;;;4934798;28;20636;-64
2022/01/30 07:41:35;;;;;;;23.27;5.60;;;5.20;1.00;;;;;;4926204;28;20212;-63
2022/01/30 07:44:04;;;;;;;20.87;5.03;;;5.20;1.00;;;;;;4933898;28;20612;-63
2022/01/30 07:46:36;;;;;;;28.50;5.23;;;5.20;1.00;;;;;;4926130;28;20243;-64
2022/01/30 07:49:08;;;;;;;27.17;6.03;;;5.10;1.00;;;;;;4925477;28;20679;-64
2022/01/30 07:51:35;;;;;;;20.50;5.40;;;5.30;1.00;;;;;;4955658;28;20219;-63
2022/01/30 07:54:02;;;;;;;29.10;8.00;;;5.50;1.00;;;;;;4908516;28;20204;-63
2022/01/30 07:56:33;;;;;;;25.50;5.63;;;5.60;1.00;;;;;;4911545;28;20262;-63
2022/01/30 07:59:00;;;;;;;21.63;6.63;;;5.60;1.00;;;;;;4915845;28;20204;-64
2022/01/30 08:01:27;;;;;;;25.37;7.57;;;5.60;1.00;;;;;;4931103;28;20247;-64
2022/01/30 08:03:56;;;;;;;26.97;5.70;;;5.50;1.00;;;;;;4930923;28;20224;-64
2022/01/30 08:06:23;;;;;;;18.80;5.10;;;5.50;1.00;;;;;;4933731;28;20243;-65
2022/01/30 08:08:53;;;;;;;26.77;6.87;;;5.50;1.00;;;;;;4947632;28;20781;-65
2022/01/30 08:11:24;;;;;;;25.53;5.57;;;5.50;1.00;;;;;;4952771;28;20651;-62
2022/01/30 08:13:51;;;;;;;28.57;5.27;;;5.50;1.00;;;;;;4925494;28;20199;-62
2022/01/30 08:16:23;;;;;;;31.93;5.83;;;5.60;1.00;;;;;;4938440;28;20325;-62
2022/01/30 08:18:54;;;;;;;24.10;4.77;;;5.80;1.00;;;;;;4918123;28;20214;-63
2022/01/30 08:21:22;;;;;;;24.47;5.83;;;5.80;1.00;;;;;;4935411;28;20202;-62
2022/01/30 08:23:50;;;;;;;34.33;5.77;;;5.90;1.00;;;;;;4924341;28;20207;-61
2022/01/30 08:26:17;;;;;;;21.40;4.27;;;6.00;1.00;;;;;;4949917;28;20215;-62
2022/01/30 08:28:44;;;;;;;22.93;5.00;;;6.10;1.00;;;;;;4927376;28;20634;-62
2022/01/30 08:31:13;;;;;;;29.00;5.13;;;6.20;1.00;;;;;;4933164;28;20233;-62
2022/01/30 08:33:40;;;;;;;24.73;5.40;;;6.30;1.00;;;;;;4950024;28;20317;-61
2022/01/30 08:36:07;;;;;;;25.03;4.57;;;6.50;1.00;;;;;;4943518;28;20207;-62
2022/01/30 08:38:34;;;;;;;25.70;4.90;;;6.60;1.00;;;;;;4934786;28;20233;-62
2022/01/30 08:41:01;;;;;;;23.20;5.43;;;6.60;1.00;;;;;;4935644;28;20652;-62
2022/01/30 08:43:30;;;;;;;23.30;5.57;;;6.70;1.00;;;;;;4934743;28;20198;-62
2022/01/30 08:45:59;;;;;;;28.13;5.50;;;6.70;1.00;;;;;;4952022;28;20204;-62
2022/01/30 08:48:27;;;;;;;30.80;6.50;;;6.70;1.00;;;;;;4916325;28;20217;-62
2022/01/30 08:50:55;;;;;;;31.07;5.87;;;6.80;99.90;;;;;;4943415;28;20554;-61
2022/01/30 08:53:24;;;;;;;34.60;7.03;;;6.70;99.90;;;;;;4926571;28;20242;-63
2022/01/30 08:55:52;;;;;;;33.03;6.03;;;6.80;99.90;;;;;;4934103;28;20223;-62
2022/01/30 08:58:18;;;;;;;28.43;5.33;;;6.80;99.90;;;;;;4948859;28;20654;-62
2022/01/30 09:00:46;;;;;;;22.70;5.43;;;6.90;99.90;;;;;;4940757;28;20239;-62
2022/01/30 09:03:19;;;;;;;24.47;6.30;;;7.10;99.90;;;;;;4928735;28;20202;-62
2022/01/30 09:05:48;;;;;;;25.17;5.67;;;7.00;99.90;;;;;;4953752;28;20243;-61
2022/01/30 09:08:17;;;;;;;20.97;4.33;;;6.80;99.90;;;;;;4951363;28;20308;-61
2022/01/30 09:10:44;;;;;;;21.40;4.37;;;6.80;99.90;;;;;;4934713;28;20242;-62
2022/01/30 09:13:12;;;;;;;25.90;5.33;;;6.80;99.90;;;;;;4944901;28;20211;-62
2022/01/30 09:15:42;;;;;;;27.63;5.40;;;7.00;99.90;;;;;;4946120;28;20191;-62
2022/01/30 09:18:11;;;;;;;20.00;4.77;;;7.20;99.90;;;;;;4953601;28;20265;-62
2022/01/30 09:20:41;;;;;;;31.53;5.83;;;7.50;99.90;;;;;;4955601;28;20241;-62
2022/01/30 09:23:13;;;;;;;27.27;5.17;;;7.70;99.90;;;;;;4917986;28;20301;-63
2022/01/30 09:25:47;;;;;;;22.70;5.13;;;8.00;71.50;;;;;;4940146;28;20219;-62
2022/01/30 09:28:14;;;;;;;29.43;5.33;;;9.40;1.00;;;;;;4931203;28;20279;-64
2022/01/30 09:30:41;;;;;;;21.50;5.43;;;12.70;99.90;;;;;;4930620;28;20199;-64
2022/01/30 09:33:08;;;;;;;22.13;6.07;;;14.30;99.90;;;;;;4923791;28;20612;-64
2022/01/30 09:35:35;;;;;;;18.63;5.27;;;14.60;99.90;;;;;;4932926;28;20567;-63
2022/01/30 09:38:02;;;;;;;20.70;5.20;;;15.90;99.90;;;;;;4930683;28;20292;-63
2022/01/30 09:40:32;;;;;;;26.53;6.10;;;15.90;99.90;;;;;;4931642;28;20235;-63
2022/01/30 09:42:58;;;;;;;19.63;5.83;;;13.20;99.90;;;;;;4928919;28;20250;-62
2022/01/30 09:45:28;;;;;;;26.80;6.27;;;11.80;99.90;;;;;;4946201;28;20254;-63
2022/01/30 09:48:00;;;;;;;30.30;7.27;;;11.00;99.90;;;;;;4945558;28;20219;-63
2022/01/30 09:50:28;;;;;;;27.40;5.77;;;10.20;99.90;;;;;;4944112;28;20618;-63
2022/01/30 09:52:55;;;;;;;29.07;6.33;;;10.00;99.90;;;;;;4936478;28;20302;-64
2022/01/30 09:55:26;;;;;;;31.60;6.13;;;9.90;1.00;;;;;;4955912;28;20261;-64
2022/01/30 09:57:53;;;;;;;24.87;6.33;;;9.90;1.00;;;;;;4929194;28;20199;-63
2022/01/30 10:00:20;;;;;;;30.27;6.30;;;10.60;99.90;;;;;;4938049;28;20230;-63
2022/01/30 10:02:48;;;;;;;29.20;6.43;;;10.70;99.90;;;;;;4932676;28;20660;-64
2022/01/30 10:05:16;;;;;;;30.67;6.50;;;10.10;99.90;;;;;;4951985;28;20191;-64
2022/01/30 10:07:51;;;;;;;26.90;6.10;;;9.90;1.00;;;;;;4949039;28;20243;-62
2022/01/30 10:10:23;;;;;;;34.13;6.33;;;11.40;99.90;;;;;;4951204;28;20198;-63
2022/01/30 10:13:01;;;;;;;29.30;6.30;;;14.80;99.90;;;;;;4948714;28;20587;-63
2022/01/30 10:15:30;;;;;;;21.40;5.93;;;15.90;99.90;;;;;;4933626;28;20299;-63
2022/01/30 10:18:04;;;;;;;25.77;5.80;;;14.90;99.90;;;;;;4948377;28;20215;-63
2022/01/30 10:20:39;;;;;;;21.47;5.50;;;14.90;99.90;;;;;;4954907;28;20199;-63
2022/01/30 10:23:09;;;;;;;26.67;6.07;;;17.50;99.90;;;;;;4912396;28;20226;-62
2022/01/30 10:25:51;;;;;;;20.20;5.20;;;18.20;99.90;;;;;;4948381;28;20206;-63
2022/01/30 10:28:28;;;;;;;24.33;5.70;;;17.50;99.90;;;;;;4948934;28;20767;-63
2022/01/30 10:30:56;;;;;;;28.63;6.73;;;13.40;99.90;;;;;;4941203;28;20206;-63
2022/01/30 10:33:42;;;;;;;35.00;6.03;;;11.20;99.90;;;;;;4924423;28;20274;-62
2022/01/30 10:36:17;;;;;;;25.10;5.97;;;9.90;99.90;;;;;;4933426;28;20606;-63
2022/01/30 10:38:52;;;;;;;26.50;6.27;;;9.20;99.90;;;;;;4940069;28;20230;-64
2022/01/30 10:41:22;;;;;;;32.10;6.17;;;8.90;1.00;;;;;;4958882;28;20253;-64
2022/01/30 10:44:02;;;;;;;28.40;6.17;;;8.60;1.00;;;;;;4949896;28;20199;-63
2022/01/30 10:46:38;;;;;;;28.13;6.30;;;8.40;1.00;;;;;;4940016;28;20278;-64
2022/01/30 10:49:19;;;;;;;33.67;6.60;;;8.20;1.00;;;;;;4974074;28;20222;-63
2022/01/30 10:51:53;;;;;;;30.30;5.23;;;8.10;1.00;;;;;;4933029;28;20684;-63
2022/01/30 10:54:21;;;;;;;29.00;7.60;;;8.10;1.00;;;;;;4931935;28;20199;-62
2022/01/30 10:57:11;;;;;;;26.63;6.43;;;8.00;1.00;;;;;;4952446;28;20550;-62
2022/01/30 10:59:43;;;;;;;28.10;6.37;;;8.00;1.00;;;;;;4919264;28;20210;-62
2022/01/30 11:02:15;;;;;;;35.87;6.90;;;8.20;1.00;;;;;;4921053;28;20207;-63
2022/01/30 11:04:44;;;;;;;33.03;6.80;;;8.30;1.00;;;;;;4918608;28;20679;-62
2022/01/30 11:07:15;;;;;;;25.70;6.17;;;8.20;1.00;;;;;;4934312;28;20230;-62
2022/01/30 11:10:12;;;;;;;27.63;6.60;;;8.30;1.00;;;;;;4920489;28;20200;-62
2022/01/30 11:12:56;;;;;;;34.47;6.93;;;8.50;1.00;;;;;;4956125;28;20293;-63
2022/01/30 11:17:59;;;;;;;35.83;6.43;;;8.40;1.00;;;;;;4957535;28;20734;-63
2022/01/30 11:20:28;;;;;;;35.73;7.80;;;8.30;1.00;;;;;;4954098;28;20199;-62
2022/01/30 11:23:00;;;;;;;34.93;6.70;;;8.20;1.00;;;;;;4919172;29;20273;-63
2022/01/30 11:25:33;;;;;;;29.97;6.27;;;9.60;1.00;;;;;;4928693;28;20295;-62
2022/01/30 11:28:03;;;;;;;36.57;9.93;;;9.80;99.90;;;;;;4919499;28;20218;-64
2022/01/30 11:30:50;;;;;;;30.97;6.17;;;9.50;99.90;;;;;;4952481;28;20710;-62
2022/01/30 11:33:19;;;;;;;37.03;7.63;;;11.60;99.90;;;;;;4929013;28;20273;-62
2022/01/30 11:35:46;;;;;;;25.33;6.03;;;11.10;99.90;;;;;;4929552;28;20302;-63
2022/01/30 11:38:14;;;;;;;31.80;7.37;;;12.00;99.90;;;;;;4920103;28;20302;-63
2022/01/30 11:40:43;;;;;;;37.93;8.30;;;11.50;99.90;;;;;;4934857;28;20198;-63
2022/01/30 11:43:10;;;;;;;29.97;7.33;;;10.60;99.90;;;;;;4953619;28;20191;-64
2022/01/30 11:45:37;;;;;;;29.10;6.50;;;9.70;99.90;;;;;;4919594;28;20239;-63
2022/01/30 11:48:16;;;;;;;34.33;7.03;;;9.40;99.90;;;;;;4960427;28;20306;-62
2022/01/30 11:50:43;;;;;;;36.33;7.60;;;9.30;99.90;;;;;;5017828;28;20297;-62
2022/01/30 11:53:13;;;;;;;31.10;7.17;;;9.50;99.90;;;;;;4919242;28;20207;-64
2022/01/30 11:56:00;;;;;;;31.73;7.67;;;9.30;99.90;;;;;;4946603;28;20475;-64
2022/01/30 11:58:31;;;;;;;27.40;7.87;;;8.90;99.90;;;;;;4936702;28;20539;-63
2022/01/30 12:01:23;;;;;;;38.80;7.67;;;8.50;99.90;;;;;;4948037;28;20235;-64
2022/01/30 12:03:59;;;;;;;32.83;7.93;;;8.40;99.90;;;;;;4934052;28;20306;-62
2022/01/30 12:06:32;;;;;;;30.33;6.43;;;8.20;99.90;;;;;;4928520;28;20202;-62
2022/01/30 12:09:20;;;;;;;28.07;5.53;;;8.50;99.90;;;;;;4917902;28;20642;-62
2022/01/30 12:11:51;;;;;;;30.70;8.60;;;9.40;99.90;;;;;;4953315;28;20199;-62
2022/01/30 12:14:21;;;;;;;28.47;7.10;;;9.80;99.90;;;;;;4933757;28;20271;-63
2022/01/30 12:16:56;;;;;;;24.87;7.83;;;10.10;99.90;;;;;;4927684;28;20205;-63
2022/01/30 12:19:47;;;;;;;33.17;8.00;;;10.80;99.90;;;;;;4927194;28;20283;-63
2022/01/30 12:22:16;;;;;;;32.03;7.70;;;11.90;99.90;;;;;;4917973;28;20217;-63
2022/01/30 12:24:48;;;;;;;30.70;7.50;;;11.90;99.90;;;;;;4919505;28;20283;-63
2022/01/30 12:27:16;;;;;;;27.00;9.93;;;11.50;99.90;;;;;;4929685;28;20264;-63
2022/01/30 12:29:51;;;;;;;38.40;9.70;;;11.20;99.90;;;;;;4920070;28;20199;-63
2022/01/30 12:32:24;;;;;;;42.90;12.20;;;11.80;99.90;;;;;;4946544;28;20241;-63
2022/01/30 12:34:54;;;;;;;39.70;10.47;;;11.70;99.90;;;;;;4942715;28;20261;-64
2022/01/30 12:37:34;;;;;;;36.47;9.63;;;11.30;99.90;;;;;;4927509;28;20203;-63
2022/01/30 12:40:21;;;;;;;22.83;6.63;;;11.30;99.90;;;;;;4954316;28;20281;-64
2022/01/30 12:42:48;;;;;;;28.60;7.63;;;10.70;99.90;;;;;;4915375;28;20260;-63
2022/01/30 12:45:16;;;;;;;25.87;8.30;;;10.70;99.90;;;;;;4913417;28;20211;-62
2022/01/30 12:47:46;;;;;;;42.37;12.43;;;11.00;99.90;;;;;;4924399;28;20222;-63
2022/01/30 12:50:16;;;;;;;39.70;9.73;;;11.30;99.90;;;;;;4930442;28;20203;-62
2022/01/30 12:52:49;;;;;;;30.20;8.53;;;10.60;99.90;;;;;;4927204;28;20606;-64
2022/01/30 12:55:17;;;;;;;41.80;10.97;;;10.20;99.90;;;;;;4926850;28;20206;-62
2022/01/30 12:57:47;;;;;;;33.37;8.13;;;9.90;99.90;;;;;;4950283;28;20248;-62
2022/01/30 13:00:16;;;;;;;36.10;8.33;;;9.70;99.90;;;;;;4925110;28;20195;-63
2022/01/30 13:03:00;;;;;;;27.60;6.40;;;9.70;99.90;;;;;;5010912;28;20198;-65
2022/01/30 13:05:31;;;;;;;30.07;9.27;;;9.60;99.90;;;;;;4912379;28;20256;-62
2022/01/30 13:07:59;;;;;;;34.43;9.90;;;9.60;99.90;;;;;;5007584;28;20327;-62
2022/01/30 13:10:27;;;;;;;31.03;7.40;;;9.40;99.90;;;;;;5001056;28;20555;-62
2022/01/30 13:12:57;;;;;;;30.37;7.27;;;9.40;99.90;;;;;;5013790;28;20279;-63
2022/01/30 13:15:27;;;;;;;25.13;7.03;;;9.50;99.90;;;;;;5009527;28;20192;-62
2022/01/30 13:17:58;;;;;;;26.10;6.23;;;9.30;99.90;;;;;;5006126;28;20633;-65
2022/01/30 13:20:27;;;;;;;38.47;8.23;;;9.40;99.90;;;;;;5007985;28;20744;-64
2022/01/30 13:22:55;;;;;;;31.80;6.87;;;9.30;99.90;;;;;;5001232;28;20205;-64
2022/01/30 13:25:25;;;;;;;34.17;7.77;;;9.40;99.90;;;;;;5009193;28;20201;-64
2022/01/30 13:28:00;;;;;;;31.00;7.97;;;9.30;99.90;;;;;;5008850;28;20597;-64
2022/01/30 13:30:32;;;;;;;30.63;8.93;;;9.30;99.90;;;;;;5001883;28;20201;-63
2022/01/30 13:33:01;;;;;;;29.03;6.43;;;9.40;99.90;;;;;;5006840;28;20192;-63
2022/01/30 13:35:31;;;;;;;34.83;8.60;;;9.20;99.90;;;;;;5008245;28;20208;-63
2022/01/30 13:38:01;;;;;;;23.67;6.13;;;9.30;99.90;;;;;;5003914;28;20224;-63
2022/01/30 13:40:42;;;;;;;32.97;7.73;;;9.30;99.90;;;;;;5023204;28;20520;-63
2022/01/30 13:43:15;;;;;;;28.40;6.17;;;9.10;99.90;;;;;;5007815;28;20197;-63
2022/01/30 13:48:20;;;;;;;34.50;7.53;;;8.70;99.90;;;;;;5027307;28;20350;-62
2022/01/30 13:51:02;;;;;;;37.23;8.87;;;8.70;99.90;;;;;;5000811;28;20201;-62
2022/01/30 13:53:31;;;;;;;34.27;8.37;;;8.70;99.90;;;;;;5004210;28;20683;-62
2022/01/30 13:56:05;;;;;;;33.23;6.63;;;8.70;99.90;;;;;;5008007;28;20777;-62
2022/01/30 13:58:41;;;;;;;28.10;7.20;;;8.60;99.90;;;;;;5000754;28;20913;-63
2022/01/30 14:01:13;;;;;;;34.43;6.93;;;8.40;99.90;;;;;;4989451;28;20239;-62
2022/01/30 14:03:44;;;;;;;34.33;7.07;;;8.30;99.90;;;;;;5004394;28;20259;-63
2022/01/30 14:06:23;;;;;;;30.93;6.00;;;8.30;99.90;;;;;;5007348;28;20228;-62
2022/01/30 14:08:57;;;;;;;33.57;7.10;;;8.30;99.90;;;;;;4971778;28;20758;-63
2022/01/30 14:11:28;;;;;;;28.97;6.30;;;8.30;99.90;;;;;;4926166;28;20290;-62
2022/01/30 14:14:08;;;;;;;31.97;7.63;;;8.40;99.90;;;;;;4925033;28;20307;-63
2022/01/30 14:16:52;;;;;;;35.90;8.03;;;8.40;99.90;;;;;;4923558;28;20195;-62
2022/01/30 14:19:33;;;;;;;29.00;7.13;;;8.30;99.90;;;;;;4952226;28;20203;-63
2022/01/30 14:22:25;;;;;;;25.23;6.17;;;8.20;99.90;;;;;;4925318;28;20203;-62
2022/01/30 14:24:55;;;;;;;31.93;7.27;;;8.10;99.90;;;;;;4956217;28;20208;-63
2022/01/30 14:27:24;;;;;;;37.30;7.77;;;8.00;99.90;;;;;;4914230;28;20284;-63